sensor_id;sensor_type;location;lat;lon;timestamp;pressure;altitude;pressure_sealevel;temperature;humidity
51759;BME280;66684;47.568;18.734;2023-05-25T00:00:09;99656.16;;;13.72;100.00
51759;BME280;66684;47.568;18.734;2023-05-25T00:02:36;99666.03;;;13.84;100.00
51759;BME280;66684;47.568;18.734;2023-05-25T00:05:02;99656.03;;;13.97;100.00
51759;BME280;66684;47.568;18.734;2023-05-25T00:07:28;99659.88;;;13.82;100.00
51759;BME280;66684;47.568;18.734;2023-05-25T00:09:54;99663.97;;;13.72;100.00
51759;BME280;66684;47.568;18.734;2023-05-25T00:12:20;99660.59;;;13.46;100.00
51759;BME280;66684;47.568;18.734;2023-05-25T00:14:46;99664.66;;;13.66;100.00
51759;BME280;66684;47.568;18.734;2023-05-25T00:17:12;99663.47;;;13.85;100.00
51759;BME280;66684;47.568;18.734;2023-05-25T00:19:38;99665.53;;;13.67;100.00
51759;BME280;66684;47.568;18.734;2023-05-25T00:22:10;99664.50;;;13.62;100.00
51759;BME280;66684;47.568;18.734;2023-05-25T00:24:37;99665.53;;;13.38;100.00
51759;BME280;66684;47.568;18.734;2023-05-25T00:27:04;99662.94;;;13.38;100.00
51759;BME280;66684;47.568;18.734;2023-05-25T00:29:32;99655.59;;;13.52;100.00
51759;BME280;66684;47.568;18.734;2023-05-25T00:31:58;99653.56;;;13.72;100.00
51759;BME280;66684;47.568;18.734;2023-05-25T00:34:24;99650.37;;;13.82;100.00
51759;BME280;66684;47.568;18.734;2023-05-25T00:36:50;99661.12;;;13.94;100.00
51759;BME280;66684;47.568;18.734;2023-05-25T00:39:17;99663.31;;;14.11;100.00
51759;BME280;66684;47.568;18.734;2023-05-25T00:41:44;99658.25;;;14.15;100.00
51759;BME280;66684;47.568;18.734;2023-05-25T00:44:11;99660.34;;;13.97;100.00
51759;BME280;66684;47.568;18.734;2023-05-25T00:46:47;99662.72;;;13.89;100.00
51759;BME280;66684;47.568;18.734;2023-05-25T00:49:13;99664.22;;;14.13;100.00
51759;BME280;66684;47.568;18.734;2023-05-25T00:51:40;99665.56;;;13.98;100.00
51759;BME280;66684;47.568;18.734;2023-05-25T00:54:06;99670.38;;;14.15;100.00
51759;BME280;66684;47.568;18.734;2023-05-25T00:56:37;99670.75;;;14.30;100.00
51759;BME280;66684;47.568;18.734;2023-05-25T00:59:05;99672.66;;;14.36;100.00
51759;BME280;66684;47.568;18.734;2023-05-25T01:01:34;99675.09;;;14.29;100.00
51759;BME280;66684;47.568;18.734;2023-05-25T01:04:08;99675.06;;;13.96;100.00
51759;BME280;66684;47.568;18.734;2023-05-25T01:06:37;99676.47;;;13.85;100.00
51759;BME280;66684;47.568;18.734;2023-05-25T01:09:04;99668.03;;;13.64;100.00
51759;BME280;66684;47.568;18.734;2023-05-25T01:11:35;99670.94;;;13.74;100.00
51759;BME280;66684;47.568;18.734;2023-05-25T01:14:01;99677.00;;;13.75;100.00
51759;BME280;66684;47.568;18.734;2023-05-25T01:16:28;99670.97;;;13.76;100.00
51759;BME280;66684;47.568;18.734;2023-05-25T01:18:54;99678.91;;;13.81;100.00
51759;BME280;66684;47.568;18.734;2023-05-25T01:21:34;99673.28;;;13.95;100.00
51759;BME280;66684;47.568;18.734;2023-05-25T01:24:09;99674.25;;;13.99;100.00
51759;BME280;66684;47.568;18.734;2023-05-25T01:26:52;99673.59;;;14.08;100.00
51759;BME280;66684;47.568;18.734;2023-05-25T01:29:20;99681.13;;;13.38;100.00
51759;BME280;66684;47.568;18.734;2023-05-25T01:31:48;99676.03;;;13.14;100.00
51759;BME280;66684;47.568;18.734;2023-05-25T01:34:15;99673.34;;;13.11;100.00
51759;BME280;66684;47.568;18.734;2023-05-25T01:36:41;99677.50;;;13.06;100.00
51759;BME280;66684;47.568;18.734;2023-05-25T01:39:08;99672.94;;;13.26;100.00
51759;BME280;66684;47.568;18.734;2023-05-25T01:41:35;99667.88;;;13.29;100.00
51759;BME280;66684;47.568;18.734;2023-05-25T01:44:01;99677.81;;;13.44;100.00
51759;BME280;66684;47.568;18.734;2023-05-25T01:46:38;99679.19;;;13.60;100.00
51759;BME280;66684;47.568;18.734;2023-05-25T01:49:28;99686.38;;;13.70;100.00
51759;BME280;66684;47.568;18.734;2023-05-25T01:52:03;99684.91;;;13.78;100.00
51759;BME280;66684;47.568;18.734;2023-05-25T01:54:37;99677.69;;;13.68;100.00
51759;BME280;66684;47.568;18.734;2023-05-25T01:57:06;99677.50;;;13.62;100.00
51759;BME280;66684;47.568;18.734;2023-05-25T01:59:35;99682.22;;;13.75;100.00
51759;BME280;66684;47.568;18.734;2023-05-25T02:02:03;99682.97;;;13.71;100.00
51759;BME280;66684;47.568;18.734;2023-05-25T02:04:30;99685.81;;;13.80;100.00
51759;BME280;66684;47.568;18.734;2023-05-25T02:06:56;99683.06;;;13.74;100.00
51759;BME280;66684;47.568;18.734;2023-05-25T02:09:22;99691.06;;;13.82;100.00
51759;BME280;66684;47.568;18.734;2023-05-25T02:11:48;99694.00;;;13.35;100.00
51759;BME280;66684;47.568;18.734;2023-05-25T02:14:14;99693.72;;;13.26;100.00
51759;BME280;66684;47.568;18.734;2023-05-25T02:16:41;99693.91;;;13.32;100.00
51759;BME280;66684;47.568;18.734;2023-05-25T02:19:07;99686.75;;;13.25;100.00
51759;BME280;66684;47.568;18.734;2023-05-25T02:21:33;99690.66;;;13.12;100.00
51759;BME280;66684;47.568;18.734;2023-05-25T02:24:02;99693.00;;;13.05;100.00
51759;BME280;66684;47.568;18.734;2023-05-25T02:26:28;99690.38;;;13.03;100.00
51759;BME280;66684;47.568;18.734;2023-05-25T02:28:54;99685.94;;;13.01;100.00
51759;BME280;66684;47.568;18.734;2023-05-25T02:31:20;99688.03;;;13.11;100.00
51759;BME280;66684;47.568;18.734;2023-05-25T02:33:46;99692.41;;;13.13;100.00
51759;BME280;66684;47.568;18.734;2023-05-25T02:36:12;99687.63;;;13.26;100.00
51759;BME280;66684;47.568;18.734;2023-05-25T02:38:38;99696.75;;;13.40;100.00
51759;BME280;66684;47.568;18.734;2023-05-25T02:41:03;99695.22;;;13.46;100.00
51759;BME280;66684;47.568;18.734;2023-05-25T02:43:29;99696.25;;;13.52;100.00
51759;BME280;66684;47.568;18.734;2023-05-25T02:45:55;99697.41;;;13.33;100.00
51759;BME280;66684;47.568;18.734;2023-05-25T02:48:21;99691.03;;;13.23;100.00
51759;BME280;66684;47.568;18.734;2023-05-25T02:50:47;99693.38;;;13.15;100.00
51759;BME280;66684;47.568;18.734;2023-05-25T02:53:13;99691.31;;;13.05;100.00
51759;BME280;66684;47.568;18.734;2023-05-25T02:55:39;99705.47;;;13.15;100.00
51759;BME280;66684;47.568;18.734;2023-05-25T02:58:07;99708.28;;;13.21;100.00
51759;BME280;66684;47.568;18.734;2023-05-25T03:00:33;99708.66;;;13.33;100.00
51759;BME280;66684;47.568;18.734;2023-05-25T03:02:59;99711.44;;;13.39;100.00
51759;BME280;66684;47.568;18.734;2023-05-25T03:05:25;99710.72;;;13.45;100.00
51759;BME280;66684;47.568;18.734;2023-05-25T03:07:52;99715.22;;;13.50;100.00
51759;BME280;66684;47.568;18.734;2023-05-25T03:10:18;99719.03;;;13.62;100.00
51759;BME280;66684;47.568;18.734;2023-05-25T03:12:44;99717.72;;;13.76;100.00
51759;BME280;66684;47.568;18.734;2023-05-25T03:15:10;99720.47;;;13.81;100.00
51759;BME280;66684;47.568;18.734;2023-05-25T03:17:37;99721.72;;;13.93;100.00
51759;BME280;66684;47.568;18.734;2023-05-25T03:20:04;99716.50;;;13.93;100.00
51759;BME280;66684;47.568;18.734;2023-05-25T03:22:30;99729.13;;;13.81;100.00
51759;BME280;66684;47.568;18.734;2023-05-25T03:24:56;99721.16;;;13.75;100.00
51759;BME280;66684;47.568;18.734;2023-05-25T03:27:24;99725.78;;;13.84;100.00
51759;BME280;66684;47.568;18.734;2023-05-25T03:29:50;99728.66;;;13.94;100.00
51759;BME280;66684;47.568;18.734;2023-05-25T03:32:16;99720.13;;;13.98;100.00
51759;BME280;66684;47.568;18.734;2023-05-25T03:34:42;99719.97;;;13.94;100.00
51759;BME280;66684;47.568;18.734;2023-05-25T03:37:09;99720.31;;;14.04;100.00
51759;BME280;66684;47.568;18.734;2023-05-25T03:39:35;99714.56;;;14.16;100.00
51759;BME280;66684;47.568;18.734;2023-05-25T03:42:01;99714.81;;;14.25;100.00
51759;BME280;66684;47.568;18.734;2023-05-25T03:44:28;99721.13;;;14.34;100.00
51759;BME280;66684;47.568;18.734;2023-05-25T03:46:53;99728.19;;;14.39;100.00
51759;BME280;66684;47.568;18.734;2023-05-25T03:49:19;99719.56;;;14.40;100.00
51759;BME280;66684;47.568;18.734;2023-05-25T03:51:45;99723.16;;;14.45;100.00
51759;BME280;66684;47.568;18.734;2023-05-25T03:54:11;99738.72;;;14.44;100.00
51759;BME280;66684;47.568;18.734;2023-05-25T03:56:37;99738.84;;;14.17;100.00
51759;BME280;66684;47.568;18.734;2023-05-25T03:59:03;99738.56;;;14.39;100.00
51759;BME280;66684;47.568;18.734;2023-05-25T04:01:29;99744.94;;;14.19;100.00
51759;BME280;66684;47.568;18.734;2023-05-25T04:03:55;99744.38;;;14.29;100.00
51759;BME280;66684;47.568;18.734;2023-05-25T04:06:21;99751.72;;;14.44;100.00
51759;BME280;66684;47.568;18.734;2023-05-25T04:08:50;99749.75;;;14.35;100.00
51759;BME280;66684;47.568;18.734;2023-05-25T04:11:17;99758.78;;;13.88;100.00
51759;BME280;66684;47.568;18.734;2023-05-25T04:13:43;99756.06;;;14.13;100.00
51759;BME280;66684;47.568;18.734;2023-05-25T04:16:09;99760.16;;;14.05;100.00
51759;BME280;66684;47.568;18.734;2023-05-25T04:18:37;99769.44;;;13.68;100.00
51759;BME280;66684;47.568;18.734;2023-05-25T04:21:03;99766.97;;;13.44;100.00
51759;BME280;66684;47.568;18.734;2023-05-25T04:23:28;99765.88;;;13.65;100.00
51759;BME280;66684;47.568;18.734;2023-05-25T04:25:55;99767.50;;;13.90;100.00
51759;BME280;66684;47.568;18.734;2023-05-25T04:28:22;99769.41;;;13.95;100.00
51759;BME280;66684;47.568;18.734;2023-05-25T04:30:48;99772.59;;;13.87;100.00
51759;BME280;66684;47.568;18.734;2023-05-25T04:33:14;99766.34;;;14.09;100.00
51759;BME280;66684;47.568;18.734;2023-05-25T04:35:40;99775.13;;;14.14;100.00
51759;BME280;66684;47.568;18.734;2023-05-25T04:38:05;99778.38;;;14.07;100.00
51759;BME280;66684;47.568;18.734;2023-05-25T04:40:32;99774.97;;;13.79;100.00
51759;BME280;66684;47.568;18.734;2023-05-25T04:43:00;99778.81;;;13.36;100.00
51759;BME280;66684;47.568;18.734;2023-05-25T04:45:26;99778.38;;;13.76;100.00
51759;BME280;66684;47.568;18.734;2023-05-25T04:47:54;99778.91;;;13.95;100.00
51759;BME280;66684;47.568;18.734;2023-05-25T04:50:21;99776.53;;;13.74;100.00
51759;BME280;66684;47.568;18.734;2023-05-25T04:52:46;99774.13;;;13.52;100.00
51759;BME280;66684;47.568;18.734;2023-05-25T04:55:12;99778.91;;;13.66;100.00
51759;BME280;66684;47.568;18.734;2023-05-25T04:57:38;99783.34;;;13.99;100.00
51759;BME280;66684;47.568;18.734;2023-05-25T05:00:05;99784.78;;;14.18;100.00
51759;BME280;66684;47.568;18.734;2023-05-25T05:02:35;99786.63;;;14.22;100.00
51759;BME280;66684;47.568;18.734;2023-05-25T05:05:00;99778.88;;;14.23;100.00
51759;BME280;66684;47.568;18.734;2023-05-25T05:07:27;99795.37;;;14.25;100.00
51759;BME280;66684;47.568;18.734;2023-05-25T05:09:53;99796.56;;;14.37;100.00
51759;BME280;66684;47.568;18.734;2023-05-25T05:12:19;99798.66;;;14.47;100.00
51759;BME280;66684;47.568;18.734;2023-05-25T05:14:45;99797.94;;;14.52;100.00
51759;BME280;66684;47.568;18.734;2023-05-25T05:17:11;99792.81;;;14.55;100.00
51759;BME280;66684;47.568;18.734;2023-05-25T05:19:37;99791.47;;;14.70;100.00
51759;BME280;66684;47.568;18.734;2023-05-25T05:22:03;99792.63;;;14.49;100.00
51759;BME280;66684;47.568;18.734;2023-05-25T05:24:29;99792.66;;;13.91;100.00
51759;BME280;66684;47.568;18.734;2023-05-25T05:26:55;99792.78;;;13.95;100.00
51759;BME280;66684;47.568;18.734;2023-05-25T05:29:21;99785.56;;;13.85;100.00
51759;BME280;66684;47.568;18.734;2023-05-25T05:31:47;99794.75;;;13.75;100.00
51759;BME280;66684;47.568;18.734;2023-05-25T05:34:12;99786.69;;;13.95;100.00
51759;BME280;66684;47.568;18.734;2023-05-25T05:36:38;99800.72;;;14.30;100.00
51759;BME280;66684;47.568;18.734;2023-05-25T05:39:04;99804.16;;;14.29;100.00
51759;BME280;66684;47.568;18.734;2023-05-25T05:41:30;99798.19;;;14.62;100.00
51759;BME280;66684;47.568;18.734;2023-05-25T05:43:56;99798.00;;;14.55;100.00
51759;BME280;66684;47.568;18.734;2023-05-25T05:46:22;99798.84;;;14.54;100.00
51759;BME280;66684;47.568;18.734;2023-05-25T05:48:48;99794.38;;;14.82;100.00
51759;BME280;66684;47.568;18.734;2023-05-25T05:51:13;99796.63;;;14.68;100.00
51759;BME280;66684;47.568;18.734;2023-05-25T05:53:39;99797.31;;;14.61;100.00
51759;BME280;66684;47.568;18.734;2023-05-25T05:56:12;99807.06;;;14.70;100.00
51759;BME280;66684;47.568;18.734;2023-05-25T05:58:41;99801.84;;;14.70;100.00
51759;BME280;66684;47.568;18.734;2023-05-25T06:01:07;99807.75;;;14.96;100.00
51759;BME280;66684;47.568;18.734;2023-05-25T06:03:33;99815.84;;;15.06;100.00
51759;BME280;66684;47.568;18.734;2023-05-25T06:05:59;99806.97;;;14.98;100.00
51759;BME280;66684;47.568;18.734;2023-05-25T06:08:25;99815.25;;;15.17;100.00
51759;BME280;66684;47.568;18.734;2023-05-25T06:10:52;99814.62;;;14.92;100.00
51759;BME280;66684;47.568;18.734;2023-05-25T06:13:18;99823.00;;;14.82;100.00
51759;BME280;66684;47.568;18.734;2023-05-25T06:15:44;99816.78;;;15.08;100.00
51759;BME280;66684;47.568;18.734;2023-05-25T06:18:09;99817.81;;;15.15;100.00
51759;BME280;66684;47.568;18.734;2023-05-25T06:20:35;99817.16;;;15.24;100.00
51759;BME280;66684;47.568;18.734;2023-05-25T06:23:01;99821.44;;;15.56;100.00
51759;BME280;66684;47.568;18.734;2023-05-25T06:25:27;99824.69;;;15.84;100.00
51759;BME280;66684;47.568;18.734;2023-05-25T06:27:53;99828.66;;;16.04;100.00
51759;BME280;66684;47.568;18.734;2023-05-25T06:30:19;99825.19;;;16.04;100.00
51759;BME280;66684;47.568;18.734;2023-05-25T06:32:45;99833.59;;;15.92;100.00
51759;BME280;66684;47.568;18.734;2023-05-25T06:35:11;99836.09;;;16.27;100.00
51759;BME280;66684;47.568;18.734;2023-05-25T06:37:44;99839.03;;;16.42;100.00
51759;BME280;66684;47.568;18.734;2023-05-25T06:40:10;99834.56;;;16.36;100.00
51759;BME280;66684;47.568;18.734;2023-05-25T06:42:37;99828.22;;;16.24;100.00
51759;BME280;66684;47.568;18.734;2023-05-25T06:45:03;99829.31;;;16.35;100.00
51759;BME280;66684;47.568;18.734;2023-05-25T06:47:30;99832.31;;;16.53;100.00
51759;BME280;66684;47.568;18.734;2023-05-25T06:49:56;99833.87;;;16.45;100.00
51759;BME280;66684;47.568;18.734;2023-05-25T06:52:21;99830.84;;;16.67;100.00
51759;BME280;66684;47.568;18.734;2023-05-25T06:54:47;99832.69;;;16.71;100.00
51759;BME280;66684;47.568;18.734;2023-05-25T06:57:13;99835.69;;;16.91;100.00
51759;BME280;66684;47.568;18.734;2023-05-25T06:59:39;99839.31;;;16.99;100.00
51759;BME280;66684;47.568;18.734;2023-05-25T07:02:05;99842.44;;;16.80;100.00
51759;BME280;66684;47.568;18.734;2023-05-25T07:04:31;99846.69;;;16.77;100.00
51759;BME280;66684;47.568;18.734;2023-05-25T07:06:57;99843.81;;;17.08;100.00
51759;BME280;66684;47.568;18.734;2023-05-25T07:09:23;99846.00;;;17.34;100.00
51759;BME280;66684;47.568;18.734;2023-05-25T07:11:49;99846.41;;;17.58;100.00
51759;BME280;66684;47.568;18.734;2023-05-25T07:14:16;99842.75;;;17.47;100.00
51759;BME280;66684;47.568;18.734;2023-05-25T07:16:42;99843.81;;;17.58;100.00
51759;BME280;66684;47.568;18.734;2023-05-25T07:19:10;99837.22;;;17.80;100.00
51759;BME280;66684;47.568;18.734;2023-05-25T07:21:36;99840.94;;;17.96;100.00
51759;BME280;66684;47.568;18.734;2023-05-25T07:24:02;99840.22;;;18.06;100.00
51759;BME280;66684;47.568;18.734;2023-05-25T07:26:32;99842.09;;;18.16;100.00
51759;BME280;66684;47.568;18.734;2023-05-25T07:28:58;99845.78;;;18.30;100.00
51759;BME280;66684;47.568;18.734;2023-05-25T07:31:24;99843.34;;;18.44;100.00
51759;BME280;66684;47.568;18.734;2023-05-25T07:33:50;99842.66;;;18.59;100.00
51759;BME280;66684;47.568;18.734;2023-05-25T07:36:18;99842.81;;;18.71;100.00
51759;BME280;66684;47.568;18.734;2023-05-25T07:38:46;99844.56;;;18.72;100.00
51759;BME280;66684;47.568;18.734;2023-05-25T07:41:12;99848.91;;;18.67;100.00
51759;BME280;66684;47.568;18.734;2023-05-25T07:43:41;99849.44;;;18.43;100.00
51759;BME280;66684;47.568;18.734;2023-05-25T07:46:06;99851.28;;;18.52;100.00
51759;BME280;66684;47.568;18.734;2023-05-25T07:48:32;99852.50;;;18.78;100.00
51759;BME280;66684;47.568;18.734;2023-05-25T07:50:58;99848.28;;;18.90;100.00
51759;BME280;66684;47.568;18.734;2023-05-25T07:53:24;99856.91;;;18.79;100.00
51759;BME280;66684;47.568;18.734;2023-05-25T07:55:50;99856.94;;;18.85;100.00
51759;BME280;66684;47.568;18.734;2023-05-25T07:58:16;99855.25;;;18.87;100.00
51759;BME280;66684;47.568;18.734;2023-05-25T08:00:42;99852.47;;;18.74;100.00
51759;BME280;66684;47.568;18.734;2023-05-25T08:03:09;99862.19;;;18.85;100.00
51759;BME280;66684;47.568;18.734;2023-05-25T08:05:35;99851.78;;;18.92;100.00
51759;BME280;66684;47.568;18.734;2023-05-25T08:08:01;99842.34;;;19.06;100.00
51759;BME280;66684;47.568;18.734;2023-05-25T08:10:27;99844.03;;;18.99;100.00
51759;BME280;66684;47.568;18.734;2023-05-25T08:12:57;99848.34;;;18.96;100.00
51759;BME280;66684;47.568;18.734;2023-05-25T08:15:24;99852.25;;;19.40;100.00
51759;BME280;66684;47.568;18.734;2023-05-25T08:17:51;99854.94;;;19.45;100.00
51759;BME280;66684;47.568;18.734;2023-05-25T08:20:17;99850.50;;;19.39;100.00
51759;BME280;66684;47.568;18.734;2023-05-25T08:22:43;99853.06;;;19.33;100.00
51759;BME280;66684;47.568;18.734;2023-05-25T08:25:10;99846.97;;;19.31;100.00
51759;BME280;66684;47.568;18.734;2023-05-25T08:27:36;99854.06;;;19.45;100.00
51759;BME280;66684;47.568;18.734;2023-05-25T08:30:03;99854.31;;;19.69;100.00
51759;BME280;66684;47.568;18.734;2023-05-25T08:32:30;99858.50;;;19.53;100.00
51759;BME280;66684;47.568;18.734;2023-05-25T08:34:56;99865.41;;;19.44;100.00
51759;BME280;66684;47.568;18.734;2023-05-25T08:37:22;99863.81;;;19.58;100.00
51759;BME280;66684;47.568;18.734;2023-05-25T08:39:49;99868.38;;;19.85;98.50
51759;BME280;66684;47.568;18.734;2023-05-25T08:42:15;99870.22;;;19.93;100.00
51759;BME280;66684;47.568;18.734;2023-05-25T08:44:41;99868.31;;;19.76;100.00
51759;BME280;66684;47.568;18.734;2023-05-25T08:47:07;99864.59;;;19.54;100.00
51759;BME280;66684;47.568;18.734;2023-05-25T08:49:37;99861.44;;;19.88;98.77
51759;BME280;66684;47.568;18.734;2023-05-25T08:52:04;99868.47;;;19.92;100.00
51759;BME280;66684;47.568;18.734;2023-05-25T08:54:35;99864.97;;;19.93;100.00
51759;BME280;66684;47.568;18.734;2023-05-25T08:57:16;99865.66;;;19.73;95.83
51759;BME280;66684;47.568;18.734;2023-05-25T09:02:53;99866.81;;;20.07;96.70
51759;BME280;66684;47.568;18.734;2023-05-25T09:05:22;99873.84;;;20.17;95.77
51759;BME280;66684;47.568;18.734;2023-05-25T09:07:49;99863.34;;;20.17;96.10
51759;BME280;66684;47.568;18.734;2023-05-25T09:10:16;99861.84;;;20.56;97.22
51759;BME280;66684;47.568;18.734;2023-05-25T09:12:42;99861.91;;;20.74;90.58
51759;BME280;66684;47.568;18.734;2023-05-25T09:15:09;99864.50;;;20.66;91.53
51759;BME280;66684;47.568;18.734;2023-05-25T09:17:35;99864.44;;;20.54;89.99
51759;BME280;66684;47.568;18.734;2023-05-25T09:20:02;99860.97;;;20.57;89.72
51759;BME280;66684;47.568;18.734;2023-05-25T09:22:28;99870.69;;;20.82;93.12
51759;BME280;66684;47.568;18.734;2023-05-25T09:24:54;99859.38;;;21.06;90.98
51759;BME280;66684;47.568;18.734;2023-05-25T09:27:22;99860.31;;;21.25;92.77
51759;BME280;66684;47.568;18.734;2023-05-25T09:29:49;99860.34;;;21.34;84.34
51759;BME280;66684;47.568;18.734;2023-05-25T09:32:16;99862.09;;;21.66;85.37
51759;BME280;66684;47.568;18.734;2023-05-25T09:34:43;99856.84;;;21.72;84.77
51759;BME280;66684;47.568;18.734;2023-05-25T09:37:11;99862.09;;;21.53;79.89
51759;BME280;66684;47.568;18.734;2023-05-25T09:39:41;99864.75;;;21.50;83.31
51759;BME280;66684;47.568;18.734;2023-05-25T09:42:08;99866.50;;;21.82;84.91
51759;BME280;66684;47.568;18.734;2023-05-25T09:44:34;99867.38;;;21.57;82.52
51759;BME280;66684;47.568;18.734;2023-05-25T09:47:00;99869.09;;;21.80;83.81
51759;BME280;66684;47.568;18.734;2023-05-25T09:49:26;99870.84;;;21.98;79.07
51759;BME280;66684;47.568;18.734;2023-05-25T09:51:53;99864.69;;;21.98;76.56
51759;BME280;66684;47.568;18.734;2023-05-25T09:54:20;99864.72;;;21.70;77.41
51759;BME280;66684;47.568;18.734;2023-05-25T09:56:47;99873.50;;;21.81;76.94
51759;BME280;66684;47.568;18.734;2023-05-25T09:59:13;99871.72;;;21.94;76.71
51759;BME280;66684;47.568;18.734;2023-05-25T10:01:40;99869.94;;;22.04;78.01
51759;BME280;66684;47.568;18.734;2023-05-25T10:04:06;99867.34;;;21.72;76.65
51759;BME280;66684;47.568;18.734;2023-05-25T10:06:32;99869.94;;;21.99;80.06
51759;BME280;66684;47.568;18.734;2023-05-25T10:08:59;99876.09;;;21.98;75.06
51759;BME280;66684;47.568;18.734;2023-05-25T10:11:26;99869.94;;;22.08;75.84
51759;BME280;66684;47.568;18.734;2023-05-25T10:13:53;99873.44;;;22.24;74.83
51759;BME280;66684;47.568;18.734;2023-05-25T10:16:27;99869.06;;;22.19;73.32
51759;BME280;66684;47.568;18.734;2023-05-25T10:19:05;99874.34;;;22.16;78.08
51759;BME280;66684;47.568;18.734;2023-05-25T10:21:32;99876.97;;;22.08;76.12
51759;BME280;66684;47.568;18.734;2023-05-25T10:24:10;99871.69;;;22.19;75.88
51759;BME280;66684;47.568;18.734;2023-05-25T10:26:41;99867.28;;;22.30;75.05
51759;BME280;66684;47.568;18.734;2023-05-25T10:29:10;99862.03;;;22.33;76.76
51759;BME280;66684;47.568;18.734;2023-05-25T10:31:37;99859.34;;;22.47;79.39
51759;BME280;66684;47.568;18.734;2023-05-25T10:34:03;99867.28;;;22.39;79.00
51759;BME280;66684;47.568;18.734;2023-05-25T10:36:30;99849.63;;;22.56;74.64
51759;BME280;66684;47.568;18.734;2023-05-25T10:38:59;99843.47;;;22.67;75.77
51759;BME280;66684;47.568;18.734;2023-05-25T10:41:26;99846.00;;;22.91;77.22
51759;BME280;66684;47.568;18.734;2023-05-25T10:43:52;99849.59;;;22.69;75.85
51759;BME280;66684;47.568;18.734;2023-05-25T10:46:20;99847.09;;;22.44;73.27
51759;BME280;66684;47.568;18.734;2023-05-25T10:48:47;99847.81;;;22.74;76.56
51759;BME280;66684;47.568;18.734;2023-05-25T10:51:13;99847.72;;;22.98;77.49
51759;BME280;66684;47.568;18.734;2023-05-25T10:53:43;99848.66;;;22.88;74.86
51759;BME280;66684;47.568;18.734;2023-05-25T10:56:12;99855.00;;;22.29;77.72
51759;BME280;66684;47.568;18.734;2023-05-25T10:58:42;99840.87;;;22.54;79.17
51759;BME280;66684;47.568;18.734;2023-05-25T11:01:13;99843.53;;;22.48;77.89
51759;BME280;66684;47.568;18.734;2023-05-25T11:06:16;99846.19;;;22.45;78.61
51759;BME280;66684;47.568;18.734;2023-05-25T11:08:58;99842.63;;;22.55;78.42
51759;BME280;66684;47.568;18.734;2023-05-25T11:14:29;99831.13;;;22.73;78.41
51759;BME280;66684;47.568;18.734;2023-05-25T11:17:13;99846.03;;;22.82;77.93
51759;BME280;66684;47.568;18.734;2023-05-25T11:19:49;99830.12;;;23.00;76.21
51759;BME280;66684;47.568;18.734;2023-05-25T11:22:35;99830.28;;;22.70;77.80
51759;BME280;66684;47.568;18.734;2023-05-25T11:25:35;99833.09;;;22.04;81.45
51759;BME280;66684;47.568;18.734;2023-05-25T11:28:03;99831.19;;;22.61;78.54
51759;BME280;66684;47.568;18.734;2023-05-25T11:30:29;99831.09;;;22.90;76.39
51759;BME280;66684;47.568;18.734;2023-05-25T11:33:00;99823.88;;;23.17;75.13
51759;BME280;66684;47.568;18.734;2023-05-25T11:35:26;99826.69;;;22.89;76.43
51759;BME280;66684;47.568;18.734;2023-05-25T11:37:53;99817.94;;;22.78;75.28
51759;BME280;66684;47.568;18.734;2023-05-25T11:40:22;99807.38;;;22.88;75.12
51759;BME280;66684;47.568;18.734;2023-05-25T11:42:49;99809.94;;;22.98;77.47
51759;BME280;66684;47.568;18.734;2023-05-25T11:45:20;99807.16;;;23.21;76.05
51759;BME280;66684;47.568;18.734;2023-05-25T11:47:46;99805.00;;;23.72;72.07
51759;BME280;66684;47.568;18.734;2023-05-25T11:50:15;99805.06;;;23.65;70.18
51759;BME280;66684;47.568;18.734;2023-05-25T11:52:41;99809.66;;;23.39;73.30
51759;BME280;66684;47.568;18.734;2023-05-25T11:55:11;99806.75;;;23.73;74.12
51759;BME280;66684;47.568;18.734;2023-05-25T11:57:39;99801.59;;;23.54;73.71
51759;BME280;66684;47.568;18.734;2023-05-25T12:00:05;99789.97;;;23.78;75.22
51759;BME280;66684;47.568;18.734;2023-05-25T12:02:39;99791.16;;;24.30;70.21
51759;BME280;66684;47.568;18.734;2023-05-25T12:05:06;99782.56;;;24.12;69.17
51759;BME280;66684;47.568;18.734;2023-05-25T12:07:32;99784.28;;;24.16;68.74
51759;BME280;66684;47.568;18.734;2023-05-25T12:10:10;99784.47;;;24.01;68.01
51759;BME280;66684;47.568;18.734;2023-05-25T12:12:46;99776.94;;;23.61;67.33
51759;BME280;66684;47.568;18.734;2023-05-25T12:15:20;99784.78;;;23.67;68.13
51759;BME280;66684;47.568;18.734;2023-05-25T12:17:46;99773.91;;;24.01;66.35
51759;BME280;66684;47.568;18.734;2023-05-25T12:20:13;99770.69;;;24.48;63.38
51759;BME280;66684;47.568;18.734;2023-05-25T12:22:41;99781.41;;;23.50;68.99
51759;BME280;66684;47.568;18.734;2023-05-25T12:25:09;99769.66;;;23.85;69.65
51759;BME280;66684;47.568;18.734;2023-05-25T12:27:35;99774.59;;;24.15;67.69
51759;BME280;66684;47.568;18.734;2023-05-25T12:30:03;99765.75;;;24.19;67.67
51759;BME280;66684;47.568;18.734;2023-05-25T12:32:29;99766.41;;;24.38;65.29
51759;BME280;66684;47.568;18.734;2023-05-25T12:35:05;99775.19;;;23.63;67.39
51759;BME280;66684;47.568;18.734;2023-05-25T12:37:31;99771.47;;;23.80;67.15
51759;BME280;66684;47.568;18.734;2023-05-25T12:39:58;99764.53;;;23.73;69.40
51759;BME280;66684;47.568;18.734;2023-05-25T12:42:24;99766.69;;;24.15;66.53
51759;BME280;66684;47.568;18.734;2023-05-25T12:44:54;99760.38;;;24.26;68.25
51759;BME280;66684;47.568;18.734;2023-05-25T12:47:23;99758.72;;;24.18;65.06
51759;BME280;66684;47.568;18.734;2023-05-25T12:49:50;99755.38;;;24.04;64.69
51759;BME280;66684;47.568;18.734;2023-05-25T12:52:37;99764.47;;;23.76;62.97